CheckWX is a tool to help pilots better visualize weather data.  It is not intended as a substitute for an official pre-flight weather briefing.

02:36:01 UTC

KNOW METAR
Port Angeles CGas Airport
Port Angeles, Washington, USA
Current

26 mins ago

KNOW 020210Z AUTO 00000KT 10SM CLR 07/M01 A3012 RMK AO2 T00661011
Observed
Apr-2 @ 02:10 UTC
Visibility
10 SM
Flight Rules
VFR
Cloud Levels
  • Clear skies
Temperature
C / 45°F
Dewpoint
-1°C / 30°F
Humidity
57%
Altimeter
30.12" Hg
Pressure
1020.02 hPa
Previous

46 mins ago

KNOW 020150Z AUTO 00000KT 10SM CLR 07/M01 A3012 RMK AO2 T00711009
Observed
Apr-2 @ 01:50 UTC
Visibility
10 SM
Flight Rules
VFR
Cloud Levels
  • Clear skies
Temperature
C / 45°F
Dewpoint
-1°C / 30°F
Humidity
57%
Altimeter
30.12" Hg
Pressure
1020.02 hPa
Previous

1 hour ago

KNOW 020130Z AUTO 00000KT 10SM CLR 07/M01 A3012 RMK AO2 T00721006
Observed
Apr-2 @ 01:30 UTC
Visibility
10 SM
Flight Rules
VFR
Cloud Levels
  • Clear skies
Temperature
C / 45°F
Dewpoint
-1°C / 30°F
Humidity
57%
Altimeter
30.12" Hg
Pressure
1020.02 hPa